< < Back
Terminal Aerodrome Forecast


Current Version              Previous Versions:   1  2  3  4  5  6  7  8  9  

Terminal Aerodrome Forecast

554
FTUS44 KMOB 271100
TAFMOB
TAF
KMOB 271140Z 2712/2812 25004KT P6SM SKC
     FM271500 31009KT P6SM SKC
     FM280000 33005KT P6SM SKC
     FM280900 02004KT P6SM SKC=

Latest METAR

633
SAUS80 KWBC 271200 RRA
MTRMOB
METAR KMOB 271156Z 27004KT 7SM FEW250 04/01 A3004 RMK AO2 SLP171
T00390011 10061 20039 53002


USA.gov is the U.S. government's official web portal to all federal, state and local government web resources and services.